createdAt,value
2018-07-16T00:01:52.749Z,21.50
2018-07-16T00:04:23.996Z,21.30
2018-07-16T00:06:55.160Z,21.40
2018-07-16T00:09:26.352Z,21.50
2018-07-16T00:11:58.418Z,21.60
2018-07-16T00:14:29.700Z,21.50
2018-07-16T00:17:01.429Z,21.40
2018-07-16T00:19:32.879Z,21.30
2018-07-16T00:22:04.239Z,21.20
2018-07-16T00:24:35.583Z,21.30
2018-07-16T00:27:06.811Z,21.60
2018-07-16T00:29:38.516Z,21.80
2018-07-16T00:32:09.632Z,22.00
2018-07-16T00:34:41.311Z,22.00
2018-07-16T00:37:12.560Z,21.90
2018-07-16T00:39:44.486Z,21.90
2018-07-16T00:42:15.896Z,22.00
2018-07-16T00:44:47.306Z,22.00
2018-07-16T00:47:18.495Z,22.00
2018-07-16T00:49:49.879Z,21.90
2018-07-16T00:52:24.282Z,21.80
2018-07-16T00:54:55.863Z,21.80
2018-07-16T00:57:26.958Z,21.80
2018-07-16T00:59:58.355Z,21.90
2018-07-16T01:02:30.001Z,21.90
2018-07-16T01:05:01.205Z,22.20
2018-07-16T01:07:32.341Z,22.50
2018-07-16T01:10:04.009Z,22.60
2018-07-16T01:15:06.361Z,22.50
2018-07-16T01:17:37.683Z,22.30
2018-07-16T01:20:08.884Z,22.10
2018-07-16T01:22:40.083Z,22.10
2018-07-16T01:25:11.226Z,22.00
2018-07-16T01:27:42.407Z,22.10
2018-07-16T01:30:13.607Z,22.10
2018-07-16T01:32:44.637Z,22.20
2018-07-16T01:35:16.469Z,22.20
2018-07-16T01:37:47.815Z,22.10
2018-07-16T01:40:19.461Z,22.20
2018-07-16T01:42:50.778Z,22.20
2018-07-16T01:45:22.152Z,22.20
2018-07-16T01:47:53.316Z,22.20
2018-07-16T01:50:25.575Z,22.10
2018-07-16T01:52:56.727Z,22.00
2018-07-16T01:55:28.025Z,22.00
2018-07-16T01:57:59.312Z,22.00
2018-07-16T02:00:30.512Z,22.00
2018-07-16T02:03:01.881Z,22.00
2018-07-16T02:05:33.861Z,21.90
2018-07-16T02:08:05.074Z,21.90
2018-07-16T02:10:36.242Z,21.90
2018-07-16T02:13:07.716Z,22.00
2018-07-16T02:15:38.880Z,22.10
2018-07-16T02:18:10.223Z,22.10
2018-07-16T02:20:41.613Z,22.20
2018-07-16T02:23:13.080Z,22.00
2018-07-16T02:25:44.488Z,22.00
2018-07-16T02:28:15.770Z,22.00
2018-07-16T02:30:47.152Z,21.90
2018-07-16T02:33:18.318Z,21.80
2018-07-16T02:35:49.669Z,21.90
2018-07-16T02:38:20.707Z,21.90
2018-07-16T02:40:51.958Z,21.90
2018-07-16T02:43:23.309Z,21.80
2018-07-16T02:45:54.737Z,21.80
2018-07-16T02:48:26.084Z,21.80
2018-07-16T02:50:57.500Z,21.70
2018-07-16T02:53:28.935Z,21.70
2018-07-16T02:56:00.044Z,21.70
2018-07-16T02:58:31.428Z,21.70
2018-07-16T03:01:02.737Z,21.70
2018-07-16T03:08:35.204Z,21.60
2018-07-16T03:13:36.817Z,21.60
2018-07-16T03:16:08.180Z,21.60
2018-07-16T03:18:39.376Z,21.60
2018-07-16T03:21:10.803Z,21.70
2018-07-16T03:23:42.309Z,21.70
2018-07-16T03:26:13.555Z,21.70
2018-07-16T03:28:45.214Z,21.60
2018-07-16T03:31:16.325Z,21.60
2018-07-16T03:33:47.728Z,21.50
2018-07-16T03:36:19.082Z,21.40
2018-07-16T03:38:50.571Z,21.40
2018-07-16T03:41:21.715Z,21.30
2018-07-16T03:43:52.967Z,21.20
2018-07-16T03:48:55.296Z,21.20
2018-07-16T03:51:26.867Z,21.20
2018-07-16T03:53:58.361Z,21.20
2018-07-16T03:56:29.949Z,21.10
2018-07-16T03:59:00.996Z,21.10
2018-07-16T04:01:32.241Z,21.20
2018-07-16T04:04:03.653Z,21.10
2018-07-16T04:06:34.843Z,21.00
2018-07-16T04:09:06.953Z,21.00
2018-07-16T04:11:38.607Z,20.90
2018-07-16T04:14:09.832Z,20.80
2018-07-16T04:16:41.380Z,20.70
2018-07-16T04:19:12.516Z,20.70
2018-07-16T04:21:43.913Z,20.60
2018-07-16T04:24:15.720Z,20.60
2018-07-16T04:26:46.919Z,20.60
2018-07-16T04:29:18.132Z,20.60
2018-07-16T04:31:55.800Z,20.60
2018-07-16T04:34:27.112Z,20.60
2018-07-16T04:36:58.500Z,20.60
2018-07-16T04:39:29.921Z,20.60
2018-07-16T04:42:01.386Z,20.50
2018-07-16T04:44:33.631Z,20.50
2018-07-16T04:47:05.845Z,20.50
2018-07-16T04:49:37.468Z,20.40
2018-07-16T04:52:08.643Z,20.40
2018-07-16T04:54:40.267Z,20.30
2018-07-16T04:57:11.460Z,20.10
2018-07-16T04:59:42.659Z,20.00
2018-07-16T05:02:13.340Z,19.70
2018-07-16T05:04:43.996Z,19.60
2018-07-16T05:07:14.646Z,19.50
2018-07-16T05:09:45.319Z,19.40
2018-07-16T05:12:15.971Z,19.30
2018-07-16T05:14:46.971Z,19.20
2018-07-16T05:17:17.627Z,19.00
2018-07-16T05:19:48.279Z,19.10
2018-07-16T05:22:19.144Z,19.10
2018-07-16T05:24:49.777Z,18.90
2018-07-16T05:27:20.435Z,18.90
2018-07-16T05:29:51.267Z,18.90
2018-07-16T05:32:22.120Z,18.90
2018-07-16T05:34:52.768Z,18.70
2018-07-16T05:37:23.536Z,18.50
2018-07-16T05:39:54.240Z,18.80
2018-07-16T05:42:24.935Z,18.80
2018-07-16T05:44:55.606Z,18.90
2018-07-16T05:47:26.305Z,18.90
2018-07-16T05:49:59.114Z,18.70
2018-07-16T05:52:29.772Z,18.50
2018-07-16T05:55:00.422Z,18.50
2018-07-16T05:57:31.129Z,18.40
2018-07-16T06:00:01.925Z,18.60
2018-07-16T06:02:32.598Z,18.70
2018-07-16T06:05:03.726Z,18.60
2018-07-16T06:07:34.387Z,18.70
2018-07-16T06:10:05.316Z,18.50
2018-07-16T06:12:35.961Z,18.60
2018-07-16T06:15:06.618Z,18.60
2018-07-16T06:17:37.277Z,18.60
2018-07-16T06:20:10.547Z,18.60
2018-07-16T06:22:41.859Z,18.60
2018-07-16T06:25:12.588Z,18.50
2018-07-16T06:27:43.263Z,18.70
2018-07-16T06:30:13.972Z,18.60
2018-07-16T06:32:44.613Z,18.50
2018-07-16T06:35:15.320Z,18.50
2018-07-16T06:37:46.113Z,18.50
2018-07-16T06:40:17.629Z,18.40
2018-07-16T06:47:50.276Z,18.20
2018-07-16T06:50:21.675Z,18.20
2018-07-16T06:52:53.039Z,18.30
2018-07-16T06:55:24.421Z,18.40
2018-07-16T06:57:56.108Z,18.40
2018-07-16T07:00:27.233Z,18.30
2018-07-16T07:02:58.596Z,18.40
2018-07-16T07:05:29.772Z,18.50
2018-07-16T07:08:01.227Z,18.50
2018-07-16T07:10:32.535Z,18.50
2018-07-16T07:13:04.225Z,18.50
2018-07-16T07:18:06.236Z,18.40
2018-07-16T07:20:37.368Z,18.30
2018-07-16T07:23:08.969Z,18.20
2018-07-16T07:25:40.149Z,18.30
2018-07-16T07:28:10.781Z,18.50
2018-07-16T07:33:13.140Z,18.60
2018-07-16T07:35:44.333Z,18.30
2018-07-16T07:38:15.897Z,18.20
2018-07-16T07:40:47.243Z,18.20
2018-07-16T07:43:18.620Z,18.30
2018-07-16T07:45:49.832Z,18.40
2018-07-16T07:48:21.230Z,18.60
2018-07-16T07:50:52.473Z,18.30
2018-07-16T07:53:23.775Z,18.60
2018-07-16T07:55:54.835Z,18.60
2018-07-16T07:58:26.471Z,18.70
2018-07-16T08:00:57.877Z,18.60
2018-07-16T08:03:29.166Z,18.60
2018-07-16T08:06:08.460Z,18.70
2018-07-16T08:08:40.460Z,18.50
2018-07-16T08:11:11.688Z,18.40
2018-07-16T08:13:43.260Z,18.30
2018-07-16T08:16:14.371Z,18.30
2018-07-16T08:18:45.626Z,18.40
2018-07-16T08:21:16.945Z,18.20
2018-07-16T08:23:48.111Z,18.10
2018-07-16T08:26:19.367Z,18.00
2018-07-16T08:28:50.607Z,17.90
2018-07-16T08:31:22.201Z,17.90
2018-07-16T08:33:53.344Z,17.80
2018-07-16T08:36:24.538Z,17.90
2018-07-16T08:38:55.646Z,17.80
2018-07-16T08:41:27.189Z,17.80
2018-07-16T08:43:58.425Z,17.80
2018-07-16T08:46:30.400Z,17.80
2018-07-16T08:49:01.636Z,17.80
2018-07-16T08:51:33.189Z,17.80
2018-07-16T08:54:04.667Z,17.90
2018-07-16T08:56:36.009Z,17.80
2018-07-16T08:59:07.899Z,17.80
2018-07-16T09:01:38.982Z,17.80
2018-07-16T09:04:10.396Z,17.80
2018-07-16T09:06:41.740Z,17.80
2018-07-16T09:09:12.948Z,17.80
2018-07-16T09:11:44.104Z,17.80
2018-07-16T09:14:15.105Z,17.80
2018-07-16T09:16:46.366Z,17.80
2018-07-16T09:19:17.567Z,17.80
2018-07-16T09:24:19.469Z,17.70
2018-07-16T09:26:50.870Z,17.80
2018-07-16T09:29:22.832Z,17.90
2018-07-16T09:31:54.302Z,17.80
2018-07-16T09:34:25.885Z,17.80
2018-07-16T09:36:57.487Z,17.80
2018-07-16T09:41:59.629Z,17.90
2018-07-16T09:44:31.495Z,18.00
2018-07-16T09:47:02.730Z,18.00
2018-07-16T09:49:33.766Z,18.10
2018-07-16T09:52:05.222Z,18.10
2018-07-16T09:57:07.564Z,18.40
2018-07-16T09:59:38.918Z,18.40
2018-07-16T10:02:16.530Z,18.40
2018-07-16T10:04:48.115Z,18.40
2018-07-16T10:07:19.162Z,18.30
2018-07-16T10:09:50.356Z,18.40
2018-07-16T10:12:21.590Z,18.50
2018-07-16T10:14:53.249Z,18.50
2018-07-16T10:17:24.433Z,18.50
2018-07-16T10:19:55.527Z,18.50
2018-07-16T10:22:26.878Z,18.60
2018-07-16T10:24:58.388Z,18.50
2018-07-16T10:27:30.004Z,18.50
2018-07-16T10:30:01.546Z,18.50
2018-07-16T10:35:03.708Z,18.60
2018-07-16T10:37:35.296Z,18.70
2018-07-16T10:40:06.695Z,18.60
2018-07-16T10:42:37.992Z,18.60
2018-07-16T10:45:10.057Z,18.70
2018-07-16T10:47:41.837Z,18.70
2018-07-16T10:50:13.173Z,18.70
2018-07-16T10:52:44.371Z,18.80
2018-07-16T10:55:16.240Z,18.80
2018-07-16T10:57:47.524Z,19.00
2018-07-16T11:00:18.716Z,19.00
2018-07-16T11:02:49.959Z,19.00
2018-07-16T11:05:21.560Z,19.00
2018-07-16T11:07:52.700Z,19.00
2018-07-16T11:10:23.947Z,19.00
2018-07-16T11:12:55.668Z,19.20
2018-07-16T11:15:27.052Z,19.00
2018-07-16T11:17:58.504Z,19.10
2018-07-16T11:20:29.622Z,19.20
2018-07-16T11:23:00.999Z,19.40
2018-07-16T11:25:32.415Z,19.80
2018-07-16T11:28:03.617Z,20.10
2018-07-16T11:30:35.271Z,19.90
2018-07-16T11:33:07.790Z,20.20
2018-07-16T11:35:38.996Z,20.10
2018-07-16T11:38:10.375Z,20.10
2018-07-16T11:40:42.143Z,20.20
2018-07-16T11:43:14.310Z,20.30
2018-07-16T11:45:45.576Z,20.30
2018-07-16T11:48:16.658Z,20.50
2018-07-16T11:50:47.878Z,20.50
2018-07-16T11:53:20.021Z,20.50
2018-07-16T11:55:51.269Z,20.50
2018-07-16T11:58:22.878Z,20.60
2018-07-16T12:00:54.024Z,20.60
2018-07-16T12:03:25.452Z,20.60
2018-07-16T12:05:56.573Z,20.80
2018-07-16T12:08:27.953Z,21.00
2018-07-16T12:10:59.159Z,21.00
2018-07-16T12:13:30.546Z,21.30
2018-07-16T12:16:01.754Z,21.30
2018-07-16T12:18:32.955Z,21.10
2018-07-16T12:21:04.351Z,21.10
2018-07-16T12:23:35.532Z,21.20
2018-07-16T12:26:07.150Z,21.30
2018-07-16T12:28:38.431Z,21.30
2018-07-16T12:31:09.505Z,21.70
2018-07-16T12:33:41.055Z,21.90
2018-07-16T12:36:12.295Z,21.90
2018-07-16T12:38:43.434Z,22.80
2018-07-16T12:41:15.174Z,23.10
2018-07-16T12:43:46.444Z,23.00
2018-07-16T12:46:18.028Z,22.40
2018-07-16T12:48:49.194Z,22.10
2018-07-16T12:51:20.852Z,22.30
2018-07-16T12:53:51.972Z,22.30
2018-07-16T12:56:23.339Z,22.00
2018-07-16T12:58:54.364Z,21.80
2018-07-16T13:01:25.570Z,21.70
2018-07-16T13:03:56.772Z,21.70
2018-07-16T13:06:27.916Z,21.80
2018-07-16T13:08:59.423Z,21.90
2018-07-16T13:11:30.467Z,21.80
2018-07-16T13:14:01.974Z,21.90
2018-07-16T13:16:33.071Z,21.80
2018-07-16T13:19:04.747Z,22.00
2018-07-16T13:21:36.048Z,21.80
2018-07-16T13:24:07.720Z,22.40
2018-07-16T13:26:39.016Z,23.60
2018-07-16T13:29:10.368Z,24.40
2018-07-16T13:31:41.407Z,24.30
2018-07-16T13:34:12.997Z,24.10
2018-07-16T13:36:44.367Z,24.50
2018-07-16T13:39:15.557Z,24.80
2018-07-16T13:41:46.593Z,25.30
2018-07-16T13:44:17.949Z,24.70
2018-07-16T13:46:49.231Z,24.60
2018-07-16T13:49:20.368Z,24.20
2018-07-16T13:51:51.605Z,23.90
2018-07-16T13:54:22.725Z,23.90
2018-07-16T13:56:54.179Z,24.20
2018-07-16T13:59:25.529Z,24.70
2018-07-16T14:01:57.762Z,24.90
2018-07-16T14:04:28.942Z,25.10
2018-07-16T14:08:03.063Z,24.80
2018-07-16T14:10:34.352Z,24.80
2018-07-16T14:13:06.012Z,24.80
2018-07-16T14:15:37.406Z,24.70
2018-07-16T14:18:08.575Z,24.50
2018-07-16T14:20:40.224Z,24.70
2018-07-16T14:23:11.300Z,24.70
2018-07-16T14:25:43.022Z,24.90
2018-07-16T14:33:04.627Z,25.10
2018-07-16T14:35:35.943Z,24.80
2018-07-16T14:38:07.280Z,24.60
2018-07-16T14:40:38.906Z,24.30
2018-07-16T14:43:10.263Z,24.50
2018-07-16T14:45:41.652Z,24.20
2018-07-16T14:48:13.015Z,24.20
2018-07-16T14:50:44.264Z,24.30
2018-07-16T14:53:15.573Z,24.30
2018-07-16T14:55:46.780Z,24.10
2018-07-16T14:58:18.433Z,24.00
2018-07-16T15:00:49.760Z,23.90
2018-07-16T15:03:21.388Z,23.90
2018-07-16T15:08:23.126Z,23.70
2018-07-16T15:10:54.504Z,23.50
2018-07-16T15:13:25.956Z,23.40
2018-07-16T15:15:57.261Z,23.50
2018-07-16T15:18:28.493Z,23.50
2018-07-16T15:21:01.194Z,23.50
2018-07-16T15:23:32.457Z,23.40
2018-07-16T15:26:03.820Z,23.40
2018-07-16T15:28:35.057Z,23.40
2018-07-16T15:31:06.263Z,23.40
2018-07-16T15:33:37.511Z,23.40
2018-07-16T15:36:09.510Z,23.30
2018-07-16T15:38:40.591Z,23.20
2018-07-16T15:41:12.031Z,23.20
2018-07-16T15:43:43.620Z,23.30
2018-07-16T15:46:14.799Z,23.40
2018-07-16T15:48:45.925Z,23.40
2018-07-16T15:51:17.156Z,23.40
2018-07-16T15:53:48.335Z,23.50
2018-07-16T15:56:21.454Z,23.50
2018-07-16T15:58:53.759Z,23.50
2018-07-16T16:01:25.028Z,23.60
2018-07-16T16:03:56.213Z,23.60
2018-07-16T16:06:27.875Z,23.70
2018-07-16T16:08:59.251Z,23.80
2018-07-16T16:11:30.611Z,23.90
2018-07-16T16:14:02.376Z,24.00
2018-07-16T16:16:33.796Z,24.30
2018-07-16T16:19:05.231Z,24.30
2018-07-16T16:21:36.598Z,24.20
2018-07-16T16:24:14.736Z,24.30
2018-07-16T16:26:46.031Z,24.40
2018-07-16T16:29:17.538Z,24.40
2018-07-16T16:31:48.776Z,24.30
2018-07-16T16:34:20.232Z,24.00
2018-07-16T16:36:51.560Z,23.80
2018-07-16T16:39:22.852Z,23.70
2018-07-16T16:41:53.942Z,23.70
2018-07-16T16:44:25.322Z,23.70
2018-07-16T16:46:56.564Z,23.60
2018-07-16T16:49:27.883Z,23.60
2018-07-16T16:51:59.264Z,23.50
2018-07-16T16:54:30.522Z,23.40
2018-07-16T16:57:01.885Z,23.40
2018-07-16T16:59:33.327Z,23.30
2018-07-16T17:02:04.624Z,23.30
2018-07-16T17:04:36.337Z,23.30
2018-07-16T17:07:07.536Z,23.20
2018-07-16T17:09:39.067Z,23.10
2018-07-16T17:12:10.259Z,23.00
2018-07-16T17:14:41.409Z,22.90
2018-07-16T17:17:13.580Z,22.80
2018-07-16T17:19:44.731Z,22.80
2018-07-16T17:22:15.980Z,22.80
2018-07-16T17:24:47.323Z,22.90
2018-07-16T17:27:18.507Z,22.90
2018-07-16T17:32:20.512Z,23.00
2018-07-16T17:34:51.974Z,23.00
2018-07-16T17:37:23.115Z,22.90
2018-07-16T17:39:54.334Z,22.90
2018-07-16T17:42:25.497Z,22.80
2018-07-16T17:44:56.944Z,22.80
2018-07-16T17:47:28.263Z,22.90
2018-07-16T17:49:59.456Z,22.90
2018-07-16T17:52:30.718Z,22.90
2018-07-16T17:55:01.847Z,22.90
2018-07-16T17:57:33.319Z,22.80
2018-07-16T18:00:04.114Z,22.20
2018-07-16T18:02:35.408Z,21.50
2018-07-16T18:05:07.061Z,21.20
2018-07-16T18:07:38.445Z,21.10
2018-07-16T18:10:10.037Z,21.20
2018-07-16T18:12:41.180Z,21.30
2018-07-16T18:15:12.579Z,21.40
2018-07-16T18:17:43.810Z,21.30
2018-07-16T18:20:15.010Z,21.30
2018-07-16T18:22:46.591Z,21.30
2018-07-16T18:25:18.176Z,21.30
2018-07-16T18:27:49.283Z,21.40
2018-07-16T18:30:26.862Z,21.40
2018-07-16T18:35:28.827Z,21.50
2018-07-16T18:38:00.983Z,21.50
2018-07-16T18:40:32.364Z,21.50
2018-07-16T18:43:03.708Z,21.50
2018-07-16T18:45:34.994Z,21.50
2018-07-16T18:50:36.952Z,21.60
2018-07-16T18:53:08.545Z,21.60
2018-07-16T18:55:46.928Z,21.60
2018-07-16T18:58:18.149Z,21.70
2018-07-16T19:00:49.543Z,21.60
2018-07-16T19:03:20.840Z,21.60
2018-07-16T19:05:51.888Z,21.60
2018-07-16T19:08:23.305Z,21.50
2018-07-16T19:10:54.692Z,21.50
2018-07-16T19:13:25.900Z,21.50
2018-07-16T19:15:57.346Z,21.40
2018-07-16T19:18:28.701Z,21.40
2018-07-16T19:21:00.043Z,21.50
2018-07-16T19:23:31.487Z,21.40
2018-07-16T19:26:02.895Z,21.50
2018-07-16T19:28:34.628Z,21.50
2018-07-16T19:31:09.498Z,21.50
2018-07-16T19:33:41.034Z,21.50
2018-07-16T19:36:12.366Z,21.50
2018-07-16T19:38:43.703Z,21.50
2018-07-16T19:41:15.004Z,21.50
2018-07-16T19:43:46.189Z,21.50
2018-07-16T19:46:17.564Z,21.60
2018-07-16T19:48:48.971Z,21.50
2018-07-16T19:51:20.618Z,21.50
2018-07-16T19:53:51.859Z,21.50
2018-07-16T19:56:23.389Z,21.50
2018-07-16T19:58:54.645Z,21.50
2018-07-16T20:01:26.448Z,21.50
2018-07-16T20:03:57.945Z,21.40
2018-07-16T20:06:29.147Z,21.50
2018-07-16T20:09:00.544Z,21.40
2018-07-16T20:11:31.764Z,21.50
2018-07-16T20:14:03.134Z,21.50
2018-07-16T20:16:43.380Z,21.50
2018-07-16T20:19:14.915Z,21.50
2018-07-16T20:21:45.954Z,21.50
2018-07-16T20:24:17.435Z,21.50
2018-07-16T20:26:48.934Z,21.60
2018-07-16T20:29:20.281Z,21.50
2018-07-16T20:31:51.694Z,21.50
2018-07-16T20:34:22.933Z,21.50
2018-07-16T20:36:54.260Z,21.50
2018-07-16T20:39:25.676Z,21.50
2018-07-16T20:41:57.042Z,21.50
2018-07-16T20:44:28.464Z,21.50
2018-07-16T20:46:59.865Z,21.50
2018-07-16T20:49:30.995Z,21.50
2018-07-16T20:52:02.226Z,21.50
2018-07-16T20:54:33.446Z,21.50
2018-07-16T20:57:05.178Z,21.50
2018-07-16T20:59:36.404Z,21.40
2018-07-16T21:02:08.043Z,21.40
2018-07-16T21:04:39.380Z,21.40
2018-07-16T21:07:10.772Z,21.40
2018-07-16T21:09:42.132Z,21.40
2018-07-16T21:12:13.958Z,21.30
2018-07-16T21:14:45.549Z,21.30
2018-07-16T21:17:16.908Z,21.30
2018-07-16T21:19:48.550Z,21.20
2018-07-16T21:22:19.659Z,21.20
2018-07-16T21:24:50.901Z,21.20
2018-07-16T21:27:22.288Z,21.20
2018-07-16T21:29:53.615Z,21.20
2018-07-16T21:32:24.995Z,21.20
2018-07-16T21:34:56.517Z,21.20
2018-07-16T21:37:27.997Z,21.10
2018-07-16T21:39:59.159Z,21.10
2018-07-16T21:42:30.577Z,21.10
2018-07-16T21:45:01.736Z,21.10
2018-07-16T21:47:33.209Z,21.00
2018-07-16T21:50:04.623Z,21.00
2018-07-16T21:52:35.731Z,21.00
2018-07-16T21:55:07.343Z,20.90
2018-07-16T21:57:38.702Z,20.90
2018-07-16T22:00:17.514Z,20.90
2018-07-16T22:02:48.528Z,20.90
2018-07-16T22:05:19.912Z,20.80
2018-07-16T22:07:50.933Z,20.80
2018-07-16T22:10:22.977Z,20.80
2018-07-16T22:12:54.683Z,20.70
2018-07-16T22:15:28.993Z,20.70
2018-07-16T22:18:00.536Z,20.60
2018-07-16T22:20:31.798Z,20.60
2018-07-16T22:23:03.026Z,20.50
2018-07-16T22:25:34.184Z,20.50
2018-07-16T22:28:05.393Z,20.40
2018-07-16T22:30:37.061Z,20.30
2018-07-16T22:35:39.164Z,20.20
2018-07-16T22:38:10.534Z,20.20
2018-07-16T22:40:41.739Z,20.20
2018-07-16T22:43:13.178Z,20.10
2018-07-16T22:45:44.467Z,20.10
2018-07-16T22:48:15.664Z,20.00
2018-07-16T22:50:46.883Z,20.00
2018-07-16T22:53:18.523Z,20.00
2018-07-16T22:55:49.852Z,19.90
2018-07-16T22:58:21.199Z,19.90
2018-07-16T23:00:52.273Z,19.90
2018-07-16T23:03:23.640Z,19.90
2018-07-16T23:05:54.824Z,19.80
2018-07-16T23:08:26.012Z,19.80
2018-07-16T23:10:57.191Z,19.80
2018-07-16T23:13:28.621Z,19.80
2018-07-16T23:15:59.959Z,19.80
2018-07-16T23:18:31.151Z,19.70
2018-07-16T23:21:02.181Z,19.70
2018-07-16T23:23:33.536Z,19.60
2018-07-16T23:26:04.756Z,19.70
2018-07-16T23:28:35.932Z,19.60
2018-07-16T23:31:06.942Z,19.60
2018-07-16T23:33:38.317Z,19.50
2018-07-16T23:36:09.500Z,19.60
2018-07-16T23:38:40.685Z,19.60
2018-07-16T23:43:50.336Z,19.50
2018-07-16T23:46:21.555Z,19.40
2018-07-16T23:48:52.978Z,19.40
2018-07-16T23:51:24.404Z,19.40
2018-07-16T23:53:55.504Z,19.40
2018-07-16T23:56:26.989Z,19.40
2018-07-16T23:58:58.277Z,19.40
